createdAt,value
2017-09-24T00:00:45.226Z,0
2017-09-24T00:01:55.581Z,0
2017-09-24T00:03:05.600Z,0
2017-09-24T00:04:15.935Z,0
2017-09-24T00:05:33.868Z,0
2017-09-24T00:06:44.234Z,0
2017-09-24T00:07:54.577Z,0
2017-09-24T00:09:04.920Z,0
2017-09-24T00:10:15.260Z,0
2017-09-24T00:11:25.657Z,0
2017-09-24T00:12:35.677Z,0
2017-09-24T00:13:46.034Z,0
2017-09-24T00:14:56.382Z,0
2017-09-24T00:16:06.714Z,0
2017-09-24T00:17:17.058Z,0
2017-09-24T00:18:27.396Z,0
2017-09-24T00:19:37.746Z,0
2017-09-24T00:20:48.093Z,0
2017-09-24T00:21:58.432Z,0
2017-09-24T00:23:08.463Z,0
2017-09-24T00:24:18.801Z,0
2017-09-24T00:25:28.832Z,0
2017-09-24T00:26:38.842Z,0
2017-09-24T00:27:49.182Z,0
2017-09-24T00:28:58.882Z,0
2017-09-24T00:30:08.909Z,0
2017-09-24T00:31:19.247Z,0
2017-09-24T00:32:29.609Z,0
2017-09-24T00:33:39.959Z,0
2017-09-24T00:34:50.347Z,0
2017-09-24T00:36:00.677Z,0
2017-09-24T00:37:11.022Z,0
2017-09-24T00:38:21.372Z,0
2017-09-24T00:39:31.706Z,0
2017-09-24T00:40:42.094Z,0
2017-09-24T00:41:52.433Z,0
2017-09-24T00:43:02.785Z,0
2017-09-24T00:44:12.842Z,0
2017-09-24T00:45:23.187Z,0
2017-09-24T00:46:32.954Z,0
2017-09-24T00:47:42.981Z,0
2017-09-24T00:48:53.325Z,0
2017-09-24T00:50:03.360Z,0
2017-09-24T00:51:13.708Z,0
2017-09-24T00:52:24.061Z,0
2017-09-24T00:53:34.406Z,0
2017-09-24T00:54:44.743Z,0
2017-09-24T00:55:55.194Z,0
2017-09-24T00:57:05.546Z,0
2017-09-24T00:58:15.927Z,0
2017-09-24T00:59:26.289Z,0
2017-09-24T01:00:36.301Z,0
2017-09-24T01:01:46.641Z,0
2017-09-24T01:02:56.819Z,0
2017-09-24T01:04:07.444Z,0
2017-09-24T01:05:17.795Z,0
2017-09-24T01:06:28.139Z,0
2017-09-24T01:07:38.158Z,0
2017-09-24T01:08:48.505Z,0
2017-09-24T01:09:58.544Z,0
2017-09-24T01:11:08.882Z,0
2017-09-24T01:12:19.233Z,0
2017-09-24T01:13:29.566Z,0
2017-09-24T01:14:39.602Z,0
2017-09-24T01:15:49.954Z,0
2017-09-24T01:16:59.661Z,0
2017-09-24T01:18:10.000Z,0
2017-09-24T01:19:20.022Z,0
2017-09-24T01:20:30.363Z,0
2017-09-24T01:21:40.758Z,0
2017-09-24T01:22:51.139Z,0
2017-09-24T01:24:01.161Z,0
2017-09-24T01:25:11.189Z,0
2017-09-24T01:26:21.530Z,0
2017-09-24T01:27:31.872Z,0
2017-09-24T01:28:42.208Z,0
2017-09-24T01:29:52.541Z,0
2017-09-24T01:31:03.116Z,0
2017-09-24T01:32:13.139Z,0
2017-09-24T01:33:23.479Z,0
2017-09-24T01:34:33.818Z,0
2017-09-24T01:35:44.156Z,0
2017-09-24T01:36:54.490Z,0
2017-09-24T01:38:04.516Z,0
2017-09-24T01:39:14.265Z,0
2017-09-24T01:40:23.986Z,0
2017-09-24T01:41:34.014Z,0
2017-09-24T01:42:44.049Z,0
2017-09-24T01:43:54.378Z,0
2017-09-24T01:45:04.734Z,0
2017-09-24T01:46:14.769Z,0
2017-09-24T01:47:25.103Z,0
2017-09-24T01:48:35.361Z,0
2017-09-24T01:49:45.407Z,0
2017-09-24T01:50:55.497Z,0
2017-09-24T01:52:05.524Z,0
2017-09-24T01:53:15.861Z,0
2017-09-24T01:54:26.212Z,0
2017-09-24T01:55:37.025Z,0
2017-09-24T01:56:47.053Z,0
2017-09-24T01:57:56.761Z,0
2017-09-24T01:59:07.119Z,0
2017-09-24T02:00:16.512Z,0
2017-09-24T02:01:26.857Z,0
2017-09-24T02:02:36.968Z,0
2017-09-24T02:03:47.305Z,0
2017-09-24T02:04:57.007Z,0
2017-09-24T02:06:07.362Z,0
2017-09-24T02:07:17.694Z,0
2017-09-24T02:08:28.093Z,0
2017-09-24T02:09:38.426Z,0
2017-09-24T02:10:48.769Z,0
2017-09-24T02:11:59.136Z,0
2017-09-24T02:13:09.479Z,0
2017-09-24T02:14:19.826Z,0
2017-09-24T02:15:29.844Z,0
2017-09-24T02:16:39.541Z,0
2017-09-24T02:17:49.880Z,0
2017-09-24T02:18:59.930Z,0
2017-09-24T02:20:10.275Z,0
2017-09-24T02:21:20.624Z,0
2017-09-24T02:22:30.635Z,0
2017-09-24T02:23:40.646Z,0
2017-09-24T02:24:51.088Z,0
2017-09-24T02:26:01.426Z,0
2017-09-24T02:27:11.773Z,0
2017-09-24T02:28:22.119Z,0
2017-09-24T02:29:32.445Z,0
2017-09-24T02:30:42.477Z,0
2017-09-24T02:31:52.564Z,0
2017-09-24T02:33:02.580Z,0
2017-09-24T02:34:12.600Z,0
2017-09-24T02:35:22.950Z,0
2017-09-24T02:36:32.976Z,0
2017-09-24T02:37:43.018Z,0
2017-09-24T02:38:53.350Z,0
2017-09-24T02:40:03.697Z,0
2017-09-24T02:41:14.050Z,0
2017-09-24T02:42:24.394Z,0
2017-09-24T02:43:34.412Z,0
2017-09-24T02:44:44.753Z,0
2017-09-24T02:45:55.111Z,0
2017-09-24T02:47:05.453Z,0
2017-09-24T02:48:15.844Z,0
2017-09-24T02:49:26.185Z,0
2017-09-24T02:50:36.576Z,0
2017-09-24T02:51:46.310Z,0
2017-09-24T02:52:56.330Z,0
2017-09-24T02:54:06.675Z,0
2017-09-24T02:55:17.062Z,0
2017-09-24T02:56:27.415Z,0
2017-09-24T02:57:37.758Z,0
2017-09-24T02:58:48.089Z,0
2017-09-24T02:59:58.429Z,0
2017-09-24T03:01:08.159Z,0
2017-09-24T03:02:18.516Z,0
2017-09-24T03:33:39.584Z,0
2017-09-24T03:34:49.588Z,0
2017-09-24T03:35:59.605Z,0
2017-09-24T03:37:09.943Z,0
2017-09-24T03:38:19.968Z,0
2017-09-24T03:39:30.026Z,0
2017-09-24T03:40:40.061Z,0
2017-09-24T03:41:50.404Z,0
2017-09-24T03:43:00.753Z,0
2017-09-24T03:44:10.458Z,0
2017-09-24T03:45:20.841Z,0
2017-09-24T03:46:31.189Z,0
2017-09-24T03:47:41.768Z,0
2017-09-24T03:48:51.789Z,0
2017-09-24T03:50:02.132Z,0
2017-09-24T03:51:12.524Z,0
2017-09-24T03:52:22.536Z,0
2017-09-24T03:53:32.237Z,0
2017-09-24T03:54:42.579Z,0
2017-09-24T03:55:52.620Z,0
2017-09-24T03:57:02.684Z,0
2017-09-24T03:58:13.030Z,0
2017-09-24T03:59:23.378Z,0
2017-09-24T04:00:33.734Z,0
2017-09-24T04:01:44.329Z,0
2017-09-24T04:02:54.714Z,0
2017-09-24T04:04:05.059Z,0
2017-09-24T04:05:15.411Z,0
2017-09-24T04:06:25.743Z,0
2017-09-24T04:07:36.089Z,0
2017-09-24T04:08:46.115Z,0
2017-09-24T04:09:56.442Z,0
2017-09-24T04:11:06.144Z,0
2017-09-24T04:12:16.476Z,0
2017-09-24T04:13:26.548Z,0
2017-09-24T04:14:36.890Z,0
2017-09-24T04:15:47.227Z,0
2017-09-24T04:16:57.570Z,0
2017-09-24T04:18:07.909Z,0
2017-09-24T04:19:18.239Z,0
2017-09-24T04:20:28.584Z,0
2017-09-24T04:21:38.910Z,4
2017-09-24T04:22:48.946Z,4
2017-09-24T04:23:59.293Z,0
2017-09-24T04:25:09.633Z,4
2017-09-24T04:26:20.031Z,4
2017-09-24T04:27:30.369Z,4
2017-09-24T04:28:40.067Z,8
2017-09-24T04:29:50.423Z,8
2017-09-24T04:31:00.776Z,8
2017-09-24T04:32:11.162Z,8
2017-09-24T04:33:21.499Z,8
2017-09-24T04:34:31.526Z,8
2017-09-24T04:35:41.868Z,12
2017-09-24T04:36:52.210Z,16
2017-09-24T04:38:02.550Z,20
2017-09-24T04:39:12.886Z,24
2017-09-24T04:40:23.243Z,24
2017-09-24T04:41:33.267Z,28
2017-09-24T04:42:43.606Z,32
2017-09-24T04:43:53.669Z,36
2017-09-24T04:45:04.010Z,40
2017-09-24T04:46:14.034Z,44
2017-09-24T04:47:24.361Z,52
2017-09-24T04:48:34.379Z,52
2017-09-24T04:49:44.728Z,60
2017-09-24T04:50:54.756Z,68
2017-09-24T04:52:04.787Z,76
2017-09-24T04:53:15.136Z,80
2017-09-24T04:54:25.480Z,92
2017-09-24T04:55:35.548Z,100
2017-09-24T04:56:45.583Z,108
2017-09-24T04:57:55.921Z,120
2017-09-24T04:59:06.270Z,124
2017-09-24T05:00:16.634Z,132
2017-09-24T05:01:26.702Z,136
2017-09-24T05:02:37.043Z,144
2017-09-24T05:03:47.378Z,152
2017-09-24T05:04:57.726Z,164
2017-09-24T05:06:07.757Z,172
2017-09-24T05:07:18.096Z,188
2017-09-24T05:08:28.440Z,196
2017-09-24T05:09:38.473Z,204
2017-09-24T05:10:48.828Z,212
2017-09-24T05:11:59.161Z,216
2017-09-24T05:13:09.557Z,220
2017-09-24T05:14:19.576Z,220
2017-09-24T05:15:29.925Z,232
2017-09-24T05:16:40.272Z,244
2017-09-24T05:17:50.625Z,252
2017-09-24T05:19:01.016Z,260
2017-09-24T05:20:11.036Z,272
2017-09-24T05:21:21.382Z,272
2017-09-24T05:22:31.719Z,280
2017-09-24T05:23:42.084Z,284
2017-09-24T05:24:52.120Z,300
2017-09-24T05:26:02.451Z,324
2017-09-24T05:27:12.789Z,344
2017-09-24T05:28:23.127Z,376
2017-09-24T05:29:33.466Z,408
2017-09-24T05:30:43.480Z,436
2017-09-24T05:31:53.827Z,452
2017-09-24T05:33:04.174Z,468
2017-09-24T05:34:14.210Z,480
2017-09-24T05:35:24.557Z,500
2017-09-24T05:36:34.900Z,516
2017-09-24T05:37:44.601Z,532
2017-09-24T05:38:54.959Z,544
2017-09-24T05:40:05.308Z,548
2017-09-24T05:41:15.020Z,540
2017-09-24T05:42:25.367Z,544
2017-09-24T05:43:35.713Z,540
2017-09-24T05:44:46.070Z,544
2017-09-24T05:45:56.427Z,548
2017-09-24T05:47:06.800Z,548
2017-09-24T05:48:17.163Z,560
2017-09-24T05:49:27.512Z,568
2017-09-24T05:50:37.841Z,572
2017-09-24T05:51:48.181Z,592
2017-09-24T05:52:58.287Z,624
2017-09-24T05:54:08.641Z,664
2017-09-24T05:55:18.972Z,704
2017-09-24T05:56:29.319Z,748
2017-09-24T05:57:39.661Z,780
2017-09-24T05:58:49.997Z,804
2017-09-24T06:00:00.328Z,812
2017-09-24T06:01:10.442Z,808
2017-09-24T06:02:20.784Z,808
2017-09-24T06:03:31.130Z,804
2017-09-24T06:04:41.504Z,800
2017-09-24T06:05:51.844Z,808
2017-09-24T06:07:01.866Z,828
2017-09-24T06:08:11.583Z,840
2017-09-24T06:09:21.937Z,860
2017-09-24T06:10:32.275Z,888
2017-09-24T06:11:42.294Z,932
2017-09-24T06:12:52.627Z,992
2017-09-24T06:14:02.670Z,1048
2017-09-24T06:15:13.035Z,1092
2017-09-24T06:16:23.391Z,1116
2017-09-24T06:17:33.769Z,1132
2017-09-24T06:18:44.112Z,1156
2017-09-24T06:19:54.459Z,1184
2017-09-24T06:21:04.484Z,1220
2017-09-24T06:22:14.518Z,1252
2017-09-24T06:23:24.600Z,1288
2017-09-24T06:24:34.960Z,1316
2017-09-24T06:25:45.303Z,1344
2017-09-24T06:26:55.648Z,1368
2017-09-24T06:28:05.691Z,1392
2017-09-24T06:29:15.733Z,1416
2017-09-24T06:30:25.776Z,1440
2017-09-24T06:31:35.824Z,1460
2017-09-24T06:32:45.843Z,1484
2017-09-24T06:33:55.884Z,1504
2017-09-24T06:35:06.280Z,1516
2017-09-24T06:36:16.630Z,1540
2017-09-24T06:37:26.347Z,1564
2017-09-24T06:38:36.702Z,1588
2017-09-24T06:39:46.737Z,1616
2017-09-24T06:40:56.817Z,1644
2017-09-24T06:42:07.160Z,1664
2017-09-24T06:43:17.208Z,1676
2017-09-24T06:44:27.599Z,1684
2017-09-24T06:45:37.622Z,1684
2017-09-24T06:46:47.723Z,1672
2017-09-24T06:47:58.096Z,1668
2017-09-24T06:49:08.423Z,1668
2017-09-24T06:50:18.784Z,1672
2017-09-24T06:51:28.800Z,1692
2017-09-24T06:52:38.891Z,1712
2017-09-24T06:53:49.239Z,1748
2017-09-24T06:54:59.263Z,1780
2017-09-24T06:56:09.603Z,1824
2017-09-24T06:57:20.151Z,1864
2017-09-24T06:58:30.526Z,1908
2017-09-24T06:59:40.877Z,1956
2017-09-24T07:00:51.238Z,2000
2017-09-24T07:02:01.284Z,2040
2017-09-24T07:03:11.620Z,2080
2017-09-24T07:04:22.011Z,2120
2017-09-24T07:05:32.031Z,2168
2017-09-24T07:06:42.064Z,2220
2017-09-24T07:07:52.093Z,2276
2017-09-24T07:09:02.464Z,2340
2017-09-24T07:10:12.818Z,2396
2017-09-24T07:11:23.169Z,2440
2017-09-24T07:12:33.522Z,2452
2017-09-24T07:13:43.871Z,2444
2017-09-24T07:14:54.225Z,2452
2017-09-24T07:16:04.260Z,2472
2017-09-24T07:17:14.603Z,2500
2017-09-24T07:18:24.947Z,2496
2017-09-24T07:19:35.283Z,2472
2017-09-24T07:20:45.627Z,2404
2017-09-24T07:21:55.709Z,2324
2017-09-24T07:23:06.095Z,2252
2017-09-24T07:24:16.137Z,2220
2017-09-24T07:25:26.483Z,2212
2017-09-24T07:26:36.828Z,2220
2017-09-24T07:27:47.240Z,2216
2017-09-24T07:28:57.274Z,2232
2017-09-24T07:30:07.651Z,2268
2017-09-24T07:31:18.010Z,2296
2017-09-24T07:32:28.367Z,2340
2017-09-24T07:33:38.709Z,2356
2017-09-24T07:34:49.074Z,2352
2017-09-24T07:35:59.428Z,2380
2017-09-24T07:37:09.156Z,2416
2017-09-24T07:38:19.510Z,2500
2017-09-24T07:39:29.918Z,2624
2017-09-24T07:40:39.960Z,2736
2017-09-24T07:41:50.296Z,2816
2017-09-24T07:43:00.324Z,2880
2017-09-24T07:44:10.668Z,2932
2017-09-24T07:45:21.060Z,2980
2017-09-24T07:46:31.416Z,3028
2017-09-24T07:47:41.785Z,3088
2017-09-24T07:48:51.847Z,3152
2017-09-24T07:50:02.189Z,3228
2017-09-24T07:51:12.301Z,3304
2017-09-24T07:52:22.345Z,3392
2017-09-24T07:53:32.374Z,3488
2017-09-24T07:54:42.730Z,3596
2017-09-24T07:55:52.772Z,3708
2017-09-24T07:57:02.801Z,3804
2017-09-24T07:58:13.181Z,3876
2017-09-24T07:59:23.210Z,3928
2017-09-24T08:00:33.557Z,3968
2017-09-24T08:01:43.919Z,4008
2017-09-24T08:02:54.260Z,4076
2017-09-24T08:04:04.291Z,4164
2017-09-24T08:05:14.346Z,4272
2017-09-24T08:06:24.696Z,4400
2017-09-24T08:07:35.041Z,4520
2017-09-24T08:08:44.804Z,4616
2017-09-24T08:09:54.518Z,4692
2017-09-24T08:11:04.870Z,4740
2017-09-24T08:12:15.232Z,4772
2017-09-24T08:13:24.935Z,4796
2017-09-24T08:14:35.292Z,4832
2017-09-24T08:15:45.646Z,4864
2017-09-24T08:16:55.674Z,4920
2017-09-24T08:18:06.036Z,4980
2017-09-24T08:19:16.092Z,5052
2017-09-24T08:20:26.495Z,5104
2017-09-24T08:21:36.833Z,5144
2017-09-24T08:22:47.176Z,5164
2017-09-24T08:23:57.517Z,5184
2017-09-24T08:25:07.866Z,5200
2017-09-24T08:26:18.215Z,5200
2017-09-24T08:27:28.562Z,5204
2017-09-24T08:28:38.599Z,5204
2017-09-24T08:29:48.958Z,5220
2017-09-24T08:30:59.296Z,5232
2017-09-24T08:32:09.345Z,5252
2017-09-24T08:33:19.730Z,5268
2017-09-24T08:34:30.077Z,5280
2017-09-24T08:35:40.124Z,5284
2017-09-24T08:36:50.477Z,5244
2017-09-24T08:38:00.497Z,5192
2017-09-24T08:39:10.868Z,5132
2017-09-24T08:40:21.224Z,5012
2017-09-24T08:41:31.574Z,4784
2017-09-24T08:42:41.910Z,4544
2017-09-24T08:43:52.319Z,4344
2017-09-24T08:45:02.347Z,4160
2017-09-24T08:46:12.377Z,4032
2017-09-24T08:47:22.395Z,3972
2017-09-24T08:48:32.956Z,4068
2017-09-24T08:49:43.403Z,4252
2017-09-24T08:50:53.754Z,4420
2017-09-24T08:52:04.130Z,4532
2017-09-24T08:53:14.502Z,4636
2017-09-24T08:54:24.896Z,4760
2017-09-24T08:55:34.979Z,4836
2017-09-24T08:56:45.009Z,4872
2017-09-24T08:57:55.060Z,4864
2017-09-24T08:59:05.436Z,4804
2017-09-24T09:00:15.156Z,4680
2017-09-24T09:01:25.600Z,4532
2017-09-24T09:02:37.272Z,4420
2017-09-24T09:03:47.330Z,4344
2017-09-24T09:04:57.810Z,4356
2017-09-24T09:06:07.901Z,4372
2017-09-24T09:07:18.592Z,4336
2017-09-24T09:08:29.193Z,4248
2017-09-24T09:09:39.534Z,4140
2017-09-24T09:10:49.892Z,4000
2017-09-24T09:12:00.253Z,3872
2017-09-24T09:13:11.445Z,3764
2017-09-24T09:14:22.136Z,3664
2017-09-24T09:15:32.495Z,3576
2017-09-24T09:16:43.287Z,3492
2017-09-24T09:17:53.639Z,3408
2017-09-24T09:19:04.038Z,3376
2017-09-24T09:20:14.109Z,3380
2017-09-24T09:21:24.462Z,3468
2017-09-24T09:22:34.838Z,3636
2017-09-24T09:23:45.217Z,3848
2017-09-24T09:24:55.624Z,4072
2017-09-24T09:26:06.049Z,4236
2017-09-24T09:27:16.425Z,4344
2017-09-24T09:28:26.804Z,4480
2017-09-24T09:29:37.170Z,4740
2017-09-24T09:30:47.532Z,5028
2017-09-24T09:31:57.554Z,5232
2017-09-24T09:33:07.927Z,5352
2017-09-24T09:34:18.277Z,5408
2017-09-24T09:35:28.666Z,5432
2017-09-24T09:36:39.040Z,5464
2017-09-24T09:37:49.417Z,5520
2017-09-24T09:38:59.475Z,5580
2017-09-24T09:40:09.535Z,5628
2017-09-24T09:41:19.886Z,5664
2017-09-24T09:42:30.298Z,5640
2017-09-24T09:43:40.641Z,5620
2017-09-24T09:44:50.995Z,5584
2017-09-24T09:46:01.360Z,5564
2017-09-24T09:47:11.730Z,5624
2017-09-24T09:48:22.081Z,5688
2017-09-24T09:49:32.462Z,5824
2017-09-24T09:50:42.808Z,5980
2017-09-24T09:51:53.194Z,6180
2017-09-24T09:53:03.221Z,6376
2017-09-24T09:54:13.256Z,6440
2017-09-24T09:55:23.605Z,6396
2017-09-24T09:56:33.979Z,6172
2017-09-24T09:57:44.344Z,5764
2017-09-24T09:58:54.722Z,5388
2017-09-24T10:00:05.326Z,5148
2017-09-24T10:01:15.674Z,5028
2017-09-24T10:02:25.732Z,4896
2017-09-24T10:03:36.081Z,4804
2017-09-24T10:04:46.145Z,4736
2017-09-24T10:05:56.556Z,4672
2017-09-24T10:07:06.616Z,4600
2017-09-24T10:08:16.678Z,4536
2017-09-24T10:09:27.045Z,4440
2017-09-24T10:10:37.081Z,4332
2017-09-24T10:11:47.426Z,4232
2017-09-24T10:12:57.462Z,4160
2017-09-24T10:14:07.812Z,4116
2017-09-24T10:15:18.309Z,4068
2017-09-24T10:16:28.346Z,3996
2017-09-24T10:17:38.394Z,3904
2017-09-24T10:18:48.767Z,3812
2017-09-24T10:19:59.121Z,3708
2017-09-24T10:21:09.158Z,3644
2017-09-24T10:22:19.515Z,3616
2017-09-24T10:23:29.563Z,3616
2017-09-24T10:24:39.922Z,3656
2017-09-24T10:25:49.977Z,3716
2017-09-24T10:27:00.328Z,3752
2017-09-24T10:28:10.691Z,3776
2017-09-24T10:29:20.726Z,3780
2017-09-24T10:30:31.095Z,3752
2017-09-24T10:31:41.466Z,3716
2017-09-24T10:32:51.812Z,3728
2017-09-24T10:34:02.188Z,3808
2017-09-24T10:35:11.909Z,3928
2017-09-24T10:36:22.267Z,4080
2017-09-24T10:37:32.618Z,4232
2017-09-24T10:38:42.687Z,4372
2017-09-24T10:39:53.064Z,4512
2017-09-24T10:41:03.129Z,4652
2017-09-24T10:42:13.485Z,4800
2017-09-24T10:43:23.842Z,4932
2017-09-24T10:44:34.184Z,5064
2017-09-24T10:45:44.227Z,5180
2017-09-24T10:46:54.591Z,5276
2017-09-24T10:48:04.952Z,5364
2017-09-24T10:49:15.349Z,5436
2017-09-24T10:50:25.060Z,5500
2017-09-24T10:51:35.414Z,5536
2017-09-24T10:52:45.459Z,5556
2017-09-24T10:53:55.823Z,5568
2017-09-24T10:55:06.199Z,5580
2017-09-24T10:56:16.555Z,5600
2017-09-24T10:57:26.901Z,5616
2017-09-24T10:58:37.263Z,5612
2017-09-24T10:59:47.647Z,5584
2017-09-24T11:00:58.030Z,5552
2017-09-24T11:02:08.375Z,5544
2017-09-24T11:03:18.731Z,5536
2017-09-24T11:04:29.075Z,5548
2017-09-24T11:05:39.442Z,5580
2017-09-24T11:06:49.843Z,5600
2017-09-24T11:07:59.557Z,5604
2017-09-24T11:09:09.600Z,5596
2017-09-24T11:10:19.956Z,5576
2017-09-24T11:11:29.693Z,5540
2017-09-24T11:12:39.747Z,5492
2017-09-24T11:13:50.119Z,5424
2017-09-24T11:15:00.470Z,5388
2017-09-24T11:16:10.806Z,5400
2017-09-24T11:17:21.174Z,5460
2017-09-24T11:18:31.514Z,5516
2017-09-24T11:19:41.865Z,5488
2017-09-24T11:20:52.233Z,5396
2017-09-24T11:22:02.615Z,5340
2017-09-24T11:23:12.021Z,5328
2017-09-24T11:24:22.132Z,5328
2017-09-24T11:25:32.489Z,5336
2017-09-24T11:26:42.211Z,5344
2017-09-24T11:27:52.600Z,5364
2017-09-24T11:29:02.644Z,5396
2017-09-24T11:30:12.747Z,5444
2017-09-24T11:31:23.103Z,5496
2017-09-24T11:32:33.148Z,5556
2017-09-24T11:33:43.195Z,5580
2017-09-24T11:34:53.231Z,5568
2017-09-24T11:36:03.606Z,5520
2017-09-24T11:37:13.642Z,5504
2017-09-24T11:38:23.999Z,5536
2017-09-24T11:39:34.355Z,5552
2017-09-24T11:40:44.399Z,5552
2017-09-24T11:41:54.500Z,5576
2017-09-24T11:43:04.856Z,5552
2017-09-24T11:44:14.928Z,5496
2017-09-24T11:45:24.999Z,5420
2017-09-24T11:46:35.363Z,5300
2017-09-24T11:47:45.738Z,5112
2017-09-24T11:48:55.769Z,4904
2017-09-24T11:50:06.136Z,4700
2017-09-24T11:51:16.483Z,4500
2017-09-24T11:52:26.845Z,4404
2017-09-24T11:53:37.262Z,4396
2017-09-24T11:54:47.336Z,4392
2017-09-24T11:55:57.696Z,4428
2017-09-24T11:57:08.071Z,4472
2017-09-24T11:58:18.438Z,4488
2017-09-24T11:59:28.796Z,4468
2017-09-24T12:00:39.147Z,4484
2017-09-24T12:01:49.523Z,4544
2017-09-24T12:02:59.580Z,4540
2017-09-24T12:04:09.968Z,4524
2017-09-24T12:05:20.328Z,4504
2017-09-24T12:06:30.048Z,4452
2017-09-24T12:07:40.401Z,4344
2017-09-24T12:08:50.766Z,4188
2017-09-24T12:10:01.113Z,3984
2017-09-24T12:11:11.453Z,3856
2017-09-24T12:12:21.474Z,3844
2017-09-24T12:13:31.892Z,4016
2017-09-24T12:14:41.941Z,4168
2017-09-24T12:15:52.293Z,4912
2017-09-24T12:17:02.682Z,5968
2017-09-24T12:18:13.030Z,7660
2017-09-24T12:19:23.066Z,6652
2017-09-24T12:20:33.596Z,6180
2017-09-24T12:21:43.969Z,6212
2017-09-24T12:22:54.395Z,6212
2017-09-24T12:24:04.749Z,6268
2017-09-24T12:25:15.126Z,6280
2017-09-24T12:26:25.482Z,6212
2017-09-24T12:27:35.845Z,5936
2017-09-24T12:28:45.902Z,5632
2017-09-24T12:29:55.948Z,5340
2017-09-24T12:31:06.313Z,5176
2017-09-24T12:32:16.668Z,5048
2017-09-24T12:33:27.008Z,4872
2017-09-24T12:34:37.041Z,4640
2017-09-24T12:35:47.406Z,4340
2017-09-24T12:36:57.458Z,4040
2017-09-24T12:38:07.486Z,3752
2017-09-24T12:39:17.842Z,3548
2017-09-24T12:40:28.240Z,3380
2017-09-24T12:41:38.289Z,3160
2017-09-24T12:42:48.661Z,2868
2017-09-24T12:43:59.020Z,2564
2017-09-24T12:45:08.961Z,2276
2017-09-24T12:46:19.023Z,2028
2017-09-24T12:47:29.403Z,1880
2017-09-24T12:48:39.784Z,1868
2017-09-24T12:49:50.144Z,1964
2017-09-24T12:51:00.514Z,2104
2017-09-24T12:52:10.921Z,2144
2017-09-24T12:59:58.078Z,1368
2017-09-24T13:01:08.460Z,1264
2017-09-24T13:02:18.816Z,1192
2017-09-24T13:03:29.169Z,1164
2017-09-24T13:04:39.210Z,1180
2017-09-24T13:05:49.610Z,1244
2017-09-24T13:06:59.980Z,1324
2017-09-24T13:08:10.028Z,1388
2017-09-24T13:09:20.410Z,1424
2017-09-24T13:10:30.492Z,1444
2017-09-24T13:11:40.878Z,1464
2017-09-24T13:12:51.251Z,1500
2017-09-24T13:14:01.630Z,1576
2017-09-24T13:15:11.661Z,1656
2017-09-24T13:16:21.763Z,1728
2017-09-24T13:17:32.130Z,1808
2017-09-24T13:18:42.492Z,1872
2017-09-24T13:19:52.848Z,1920
2017-09-24T13:21:03.221Z,1956
2017-09-24T13:22:13.629Z,1956
2017-09-24T13:23:23.985Z,1924
2017-09-24T13:24:34.017Z,1844
2017-09-24T13:25:44.398Z,1724
2017-09-24T13:26:54.781Z,1588
2017-09-24T13:28:05.125Z,1472
2017-09-24T13:29:15.490Z,1360
2017-09-24T13:30:25.878Z,1272
2017-09-24T13:31:35.924Z,1204
2017-09-24T13:32:46.299Z,1148
2017-09-24T13:33:56.720Z,1092
2017-09-24T13:35:07.105Z,1032
2017-09-24T13:36:17.148Z,984
2017-09-24T13:37:27.512Z,952
2017-09-24T13:38:37.560Z,932
2017-09-24T13:39:47.958Z,936
2017-09-24T13:40:58.346Z,956
2017-09-24T13:42:08.394Z,996
2017-09-24T13:43:18.755Z,1044
2017-09-24T13:44:29.144Z,1088
2017-09-24T13:45:39.663Z,1128
2017-09-24T13:46:50.069Z,1180
2017-09-24T13:48:00.449Z,1244
2017-09-24T13:49:10.846Z,1292
2017-09-24T13:50:20.906Z,1304
2017-09-24T13:51:31.287Z,1284
2017-09-24T13:52:41.692Z,1256
2017-09-24T13:53:52.097Z,1248
2017-09-24T13:55:02.478Z,1240
2017-09-24T13:56:12.543Z,1248
2017-09-24T13:57:22.931Z,1244
2017-09-24T13:58:33.305Z,1236
2017-09-24T13:59:43.667Z,1216
2017-09-24T14:00:54.013Z,1204
2017-09-24T14:02:04.072Z,1192
2017-09-24T14:03:14.185Z,1192
2017-09-24T14:04:24.609Z,1188
2017-09-24T14:05:34.647Z,1184
2017-09-24T14:06:44.713Z,1176
2017-09-24T14:07:55.068Z,1168
2017-09-24T14:09:05.131Z,1160
2017-09-24T14:10:15.523Z,1144
2017-09-24T14:11:25.924Z,1132
2017-09-24T14:12:35.994Z,1128
2017-09-24T14:13:46.351Z,1128
2017-09-24T14:14:56.709Z,1132
2017-09-24T14:16:07.073Z,1132
2017-09-24T14:17:17.447Z,1132
2017-09-24T14:18:27.816Z,1132
2017-09-24T14:19:38.190Z,1124
2017-09-24T14:20:48.291Z,1124
2017-09-24T14:21:58.046Z,1120
2017-09-24T14:23:08.424Z,1128
2017-09-24T14:24:18.793Z,1144
2017-09-24T14:25:28.828Z,1156
2017-09-24T14:26:38.876Z,1180
2017-09-24T14:27:49.343Z,1200
2017-09-24T14:28:59.701Z,1216
2017-09-24T14:30:10.081Z,1240
2017-09-24T14:31:20.465Z,1248
2017-09-24T14:32:31.214Z,1260
2017-09-24T14:33:41.598Z,1268
2017-09-24T14:34:51.656Z,1268
2017-09-24T14:36:01.703Z,1276
2017-09-24T14:37:12.104Z,1288
2017-09-24T14:38:22.570Z,1320
2017-09-24T14:39:32.922Z,1368
2017-09-24T14:40:43.272Z,1428
2017-09-24T14:41:53.685Z,1492
2017-09-24T14:43:04.096Z,1552
2017-09-24T14:44:14.519Z,1600
2017-09-24T14:45:24.589Z,1628
2017-09-24T14:46:34.641Z,1640
2017-09-24T14:47:44.708Z,1640
2017-09-24T14:48:55.068Z,1624
2017-09-24T14:50:05.514Z,1612
2017-09-24T14:51:15.919Z,1592
2017-09-24T14:52:26.275Z,1572
2017-09-24T14:53:36.000Z,1548
2017-09-24T14:54:46.356Z,1536
2017-09-24T14:55:56.809Z,1528
2017-09-24T14:57:07.186Z,1528
2017-09-24T14:58:17.560Z,1528
2017-09-24T14:59:27.945Z,1520
2017-09-24T15:00:37.674Z,1504
2017-09-24T15:01:47.778Z,1476
2017-09-24T15:02:58.143Z,1444
2017-09-24T15:04:08.202Z,1404
2017-09-24T15:05:18.242Z,1356
2017-09-24T15:06:28.592Z,1304
2017-09-24T15:07:39.011Z,1240
2017-09-24T15:08:49.385Z,1184
2017-09-24T15:09:59.745Z,1128
2017-09-24T15:11:09.466Z,1080
2017-09-24T15:12:19.819Z,1036
2017-09-24T15:13:30.130Z,1004
2017-09-24T15:14:40.489Z,984
2017-09-24T15:15:50.900Z,964
2017-09-24T15:17:00.937Z,948
2017-09-24T15:18:11.322Z,932
2017-09-24T15:19:21.859Z,916
2017-09-24T15:20:32.272Z,900
2017-09-24T15:21:42.625Z,892
2017-09-24T15:22:52.972Z,884
2017-09-24T15:24:03.036Z,892
2017-09-24T15:25:13.388Z,912
2017-09-24T15:26:23.489Z,940
2017-09-24T15:27:33.560Z,964
2017-09-24T15:28:43.945Z,980
2017-09-24T15:29:54.321Z,988
2017-09-24T15:31:04.763Z,984
2017-09-24T15:32:15.177Z,976
2017-09-24T15:33:25.243Z,964
2017-09-24T15:34:35.313Z,948
2017-09-24T15:35:45.704Z,932
2017-09-24T15:36:56.110Z,908
2017-09-24T15:38:06.490Z,884
2017-09-24T15:39:16.880Z,852
2017-09-24T15:40:27.247Z,832
2017-09-24T15:41:36.962Z,812
2017-09-24T15:42:47.002Z,796
2017-09-24T15:43:57.347Z,780
2017-09-24T15:45:07.751Z,768
2017-09-24T15:46:18.136Z,744
2017-09-24T15:47:28.504Z,712
2017-09-24T15:48:38.910Z,684
2017-09-24T15:49:49.324Z,656
2017-09-24T15:50:59.674Z,632
2017-09-24T15:52:10.041Z,608
2017-09-24T15:53:20.111Z,592
2017-09-24T15:54:30.227Z,576
2017-09-24T15:55:40.265Z,564
2017-09-24T15:56:50.640Z,552
2017-09-24T15:58:01.017Z,540
2017-09-24T15:59:10.755Z,528
2017-09-24T16:00:20.851Z,520
2017-09-24T16:01:31.219Z,496
2017-09-24T16:02:40.970Z,476
2017-09-24T16:03:51.342Z,456
2017-09-24T16:05:01.713Z,444
2017-09-24T16:06:12.129Z,440
2017-09-24T16:07:22.485Z,424
2017-09-24T16:08:32.879Z,396
2017-09-24T16:09:42.956Z,368
2017-09-24T16:10:54.192Z,336
2017-09-24T16:12:04.289Z,316
2017-09-24T16:13:14.346Z,304
2017-09-24T16:14:24.697Z,292
2017-09-24T16:15:34.719Z,292
2017-09-24T16:16:44.449Z,296
2017-09-24T16:17:54.916Z,304
2017-09-24T16:19:05.291Z,304
2017-09-24T16:20:15.648Z,300
2017-09-24T16:21:25.686Z,292
2017-09-24T16:22:35.720Z,280
2017-09-24T16:23:46.125Z,268
2017-09-24T16:24:56.503Z,260
2017-09-24T16:26:06.888Z,252
2017-09-24T16:27:17.246Z,244
2017-09-24T16:28:27.638Z,228
2017-09-24T16:29:38.054Z,220
2017-09-24T16:30:48.427Z,208
2017-09-24T16:31:58.784Z,196
2017-09-24T16:33:09.252Z,184
2017-09-24T16:34:19.313Z,172
2017-09-24T16:35:29.679Z,160
2017-09-24T16:36:40.027Z,152
2017-09-24T16:37:50.391Z,144
2017-09-24T16:39:00.778Z,132
2017-09-24T16:40:11.173Z,124
2017-09-24T16:41:21.618Z,116
2017-09-24T16:42:32.647Z,104
2017-09-24T16:43:42.996Z,100